sensor_id;sensor_type;location;lat;lon;timestamp;temperature;humidity
24402;DHT22;12539;48.808;11.292;2023-03-01T00:01:24;3.70;99.90
24402;DHT22;12539;48.808;11.292;2023-03-01T00:03:49;3.80;99.90
24402;DHT22;12539;48.808;11.292;2023-03-01T00:06:15;3.80;99.90
24402;DHT22;12539;48.808;11.292;2023-03-01T00:08:41;3.90;99.90
24402;DHT22;12539;48.808;11.292;2023-03-01T00:11:08;3.90;99.90
24402;DHT22;12539;48.808;11.292;2023-03-01T00:13:35;4.00;99.90
24402;DHT22;12539;48.808;11.292;2023-03-01T00:16:04;3.90;99.90
24402;DHT22;12539;48.808;11.292;2023-03-01T00:18:30;3.90;99.90
24402;DHT22;12539;48.808;11.292;2023-03-01T00:20:55;3.90;99.90
24402;DHT22;12539;48.808;11.292;2023-03-01T00:23:21;3.90;99.90
24402;DHT22;12539;48.808;11.292;2023-03-01T00:25:47;3.90;99.90
24402;DHT22;12539;48.808;11.292;2023-03-01T00:28:13;3.90;99.90
24402;DHT22;12539;48.808;11.292;2023-03-01T00:30:38;3.90;99.90
24402;DHT22;12539;48.808;11.292;2023-03-01T00:33:04;3.80;99.90
24402;DHT22;12539;48.808;11.292;2023-03-01T00:35:31;3.80;99.90
24402;DHT22;12539;48.808;11.292;2023-03-01T00:37:57;3.90;99.90
24402;DHT22;12539;48.808;11.292;2023-03-01T00:40:26;3.80;99.90
24402;DHT22;12539;48.808;11.292;2023-03-01T00:42:52;3.80;99.90
24402;DHT22;12539;48.808;11.292;2023-03-01T00:45:18;3.70;99.90
24402;DHT22;12539;48.808;11.292;2023-03-01T00:47:43;3.70;99.90
24402;DHT22;12539;48.808;11.292;2023-03-01T00:50:09;3.70;99.90
24402;DHT22;12539;48.808;11.292;2023-03-01T00:52:35;3.60;99.90
24402;DHT22;12539;48.808;11.292;2023-03-01T00:55:01;3.60;99.90
24402;DHT22;12539;48.808;11.292;2023-03-01T00:57:27;3.60;99.90
24402;DHT22;12539;48.808;11.292;2023-03-01T00:59:52;3.60;99.90
24402;DHT22;12539;48.808;11.292;2023-03-01T01:02:18;3.60;99.90
24402;DHT22;12539;48.808;11.292;2023-03-01T01:04:44;3.60;99.90
24402;DHT22;12539;48.808;11.292;2023-03-01T01:07:09;3.60;99.90
24402;DHT22;12539;48.808;11.292;2023-03-01T01:09:35;3.60;99.90
24402;DHT22;12539;48.808;11.292;2023-03-01T01:12:02;3.70;99.90
24402;DHT22;12539;48.808;11.292;2023-03-01T01:14:28;3.70;99.90
24402;DHT22;12539;48.808;11.292;2023-03-01T01:16:54;3.60;99.90
24402;DHT22;12539;48.808;11.292;2023-03-01T01:19:20;3.60;99.90
24402;DHT22;12539;48.808;11.292;2023-03-01T01:21:45;3.60;99.90
24402;DHT22;12539;48.808;11.292;2023-03-01T01:24:11;3.50;99.90
24402;DHT22;12539;48.808;11.292;2023-03-01T01:26:37;3.50;99.90
24402;DHT22;12539;48.808;11.292;2023-03-01T01:29:04;3.40;99.90
24402;DHT22;12539;48.808;11.292;2023-03-01T01:31:30;3.40;99.90
24402;DHT22;12539;48.808;11.292;2023-03-01T01:33:56;3.40;99.90
24402;DHT22;12539;48.808;11.292;2023-03-01T01:36:21;3.40;99.90
24402;DHT22;12539;48.808;11.292;2023-03-01T01:38:47;3.40;99.90
24402;DHT22;12539;48.808;11.292;2023-03-01T01:41:13;3.30;99.90
24402;DHT22;12539;48.808;11.292;2023-03-01T01:43:43;3.40;99.90
24402;DHT22;12539;48.808;11.292;2023-03-01T01:48:48;3.40;99.90
24402;DHT22;12539;48.808;11.292;2023-03-01T01:51:18;3.40;99.90
24402;DHT22;12539;48.808;11.292;2023-03-01T01:53:45;3.30;99.90
24402;DHT22;12539;48.808;11.292;2023-03-01T01:56:12;3.30;99.90
24402;DHT22;12539;48.808;11.292;2023-03-01T01:58:39;3.40;99.90
24402;DHT22;12539;48.808;11.292;2023-03-01T02:01:06;3.30;99.90
24402;DHT22;12539;48.808;11.292;2023-03-01T02:03:34;3.40;99.90
24402;DHT22;12539;48.808;11.292;2023-03-01T02:06:21;3.30;99.90
24402;DHT22;12539;48.808;11.292;2023-03-01T02:08:49;3.30;99.90
24402;DHT22;12539;48.808;11.292;2023-03-01T02:11:16;3.30;99.90
24402;DHT22;12539;48.808;11.292;2023-03-01T02:13:42;3.30;99.90
24402;DHT22;12539;48.808;11.292;2023-03-01T02:16:08;3.30;99.90
24402;DHT22;12539;48.808;11.292;2023-03-01T02:18:34;3.30;99.90
24402;DHT22;12539;48.808;11.292;2023-03-01T02:23:44;3.40;99.90
24402;DHT22;12539;48.808;11.292;2023-03-01T02:26:28;3.30;99.90
24402;DHT22;12539;48.808;11.292;2023-03-01T02:28:56;3.30;99.90
24402;DHT22;12539;48.808;11.292;2023-03-01T02:31:22;3.40;99.90
24402;DHT22;12539;48.808;11.292;2023-03-01T02:34:06;3.30;99.90
24402;DHT22;12539;48.808;11.292;2023-03-01T02:36:36;3.20;99.90
24402;DHT22;12539;48.808;11.292;2023-03-01T02:39:02;3.20;99.90
24402;DHT22;12539;48.808;11.292;2023-03-01T02:41:30;3.20;99.90
24402;DHT22;12539;48.808;11.292;2023-03-01T02:43:56;3.30;99.90
24402;DHT22;12539;48.808;11.292;2023-03-01T02:46:23;3.40;99.90
24402;DHT22;12539;48.808;11.292;2023-03-01T02:48:49;3.40;99.90
24402;DHT22;12539;48.808;11.292;2023-03-01T02:53:59;3.30;99.90
24402;DHT22;12539;48.808;11.292;2023-03-01T02:56:31;3.30;99.90
24402;DHT22;12539;48.808;11.292;2023-03-01T02:58:57;3.40;99.90
24402;DHT22;12539;48.808;11.292;2023-03-01T03:01:26;3.40;99.90
24402;DHT22;12539;48.808;11.292;2023-03-01T03:04:05;3.40;99.90
24402;DHT22;12539;48.808;11.292;2023-03-01T03:06:31;3.40;99.90
24402;DHT22;12539;48.808;11.292;2023-03-01T03:08:57;3.40;99.90
24402;DHT22;12539;48.808;11.292;2023-03-01T03:11:22;3.40;99.90
24402;DHT22;12539;48.808;11.292;2023-03-01T03:13:48;3.50;99.90
24402;DHT22;12539;48.808;11.292;2023-03-01T03:16:14;3.50;99.90
24402;DHT22;12539;48.808;11.292;2023-03-01T03:18:40;3.50;99.90
24402;DHT22;12539;48.808;11.292;2023-03-01T03:21:09;3.40;99.90
24402;DHT22;12539;48.808;11.292;2023-03-01T03:23:36;3.40;99.90
24402;DHT22;12539;48.808;11.292;2023-03-01T03:26:02;3.30;99.90
24402;DHT22;12539;48.808;11.292;2023-03-01T03:28:29;3.20;99.90
24402;DHT22;12539;48.808;11.292;2023-03-01T03:30:56;3.10;99.90
24402;DHT22;12539;48.808;11.292;2023-03-01T03:33:22;3.00;99.90
24402;DHT22;12539;48.808;11.292;2023-03-01T03:35:48;2.90;99.90
24402;DHT22;12539;48.808;11.292;2023-03-01T03:38:15;2.80;99.90
24402;DHT22;12539;48.808;11.292;2023-03-01T03:40:42;2.80;99.90
24402;DHT22;12539;48.808;11.292;2023-03-01T03:43:12;2.60;99.90
24402;DHT22;12539;48.808;11.292;2023-03-01T03:45:38;2.50;99.90
24402;DHT22;12539;48.808;11.292;2023-03-01T03:48:04;2.40;99.90
24402;DHT22;12539;48.808;11.292;2023-03-01T03:50:30;2.40;99.90
24402;DHT22;12539;48.808;11.292;2023-03-01T03:52:56;2.40;99.90
24402;DHT22;12539;48.808;11.292;2023-03-01T03:55:21;2.40;99.90
24402;DHT22;12539;48.808;11.292;2023-03-01T03:57:47;2.40;99.90
24402;DHT22;12539;48.808;11.292;2023-03-01T04:00:20;2.30;99.90
24402;DHT22;12539;48.808;11.292;2023-03-01T04:02:47;2.30;99.90
24402;DHT22;12539;48.808;11.292;2023-03-01T04:05:13;2.20;99.90
24402;DHT22;12539;48.808;11.292;2023-03-01T04:07:39;2.20;99.90
24402;DHT22;12539;48.808;11.292;2023-03-01T04:10:06;2.20;99.90
24402;DHT22;12539;48.808;11.292;2023-03-01T04:12:32;2.20;99.90
24402;DHT22;12539;48.808;11.292;2023-03-01T04:14:59;2.10;99.90
24402;DHT22;12539;48.808;11.292;2023-03-01T04:17:25;2.10;99.90
24402;DHT22;12539;48.808;11.292;2023-03-01T04:19:50;2.10;99.90
24402;DHT22;12539;48.808;11.292;2023-03-01T04:22:16;2.00;99.90
24402;DHT22;12539;48.808;11.292;2023-03-01T04:24:44;2.00;99.90
24402;DHT22;12539;48.808;11.292;2023-03-01T04:27:09;2.10;99.90
24402;DHT22;12539;48.808;11.292;2023-03-01T04:29:35;2.00;99.90
24402;DHT22;12539;48.808;11.292;2023-03-01T04:32:00;2.00;99.90
24402;DHT22;12539;48.808;11.292;2023-03-01T04:34:26;2.00;99.90
24402;DHT22;12539;48.808;11.292;2023-03-01T04:36:52;1.90;99.90
24402;DHT22;12539;48.808;11.292;2023-03-01T04:39:17;2.00;99.90
24402;DHT22;12539;48.808;11.292;2023-03-01T04:41:43;1.90;99.90
24402;DHT22;12539;48.808;11.292;2023-03-01T04:44:09;1.90;99.90
24402;DHT22;12539;48.808;11.292;2023-03-01T04:46:35;1.90;99.90
24402;DHT22;12539;48.808;11.292;2023-03-01T04:49:01;2.00;99.90
24402;DHT22;12539;48.808;11.292;2023-03-01T04:51:27;2.00;99.90
24402;DHT22;12539;48.808;11.292;2023-03-01T04:53:52;1.90;99.90
24402;DHT22;12539;48.808;11.292;2023-03-01T04:59:02;1.80;99.90
24402;DHT22;12539;48.808;11.292;2023-03-01T05:01:30;1.80;99.90
24402;DHT22;12539;48.808;11.292;2023-03-01T05:03:56;1.80;99.90
24402;DHT22;12539;48.808;11.292;2023-03-01T05:06:28;1.80;99.90
24402;DHT22;12539;48.808;11.292;2023-03-01T05:08:53;1.80;99.90
24402;DHT22;12539;48.808;11.292;2023-03-01T05:11:19;1.80;99.90
24402;DHT22;12539;48.808;11.292;2023-03-01T05:13:44;1.80;99.90
24402;DHT22;12539;48.808;11.292;2023-03-01T05:16:10;1.80;99.90
24402;DHT22;12539;48.808;11.292;2023-03-01T05:18:39;1.70;99.90
24402;DHT22;12539;48.808;11.292;2023-03-01T05:21:05;1.70;99.90
24402;DHT22;12539;48.808;11.292;2023-03-01T05:23:32;1.80;99.90
24402;DHT22;12539;48.808;11.292;2023-03-01T05:25:58;1.60;99.90
24402;DHT22;12539;48.808;11.292;2023-03-01T05:28:25;1.60;99.90
24402;DHT22;12539;48.808;11.292;2023-03-01T05:30:50;1.50;99.90
24402;DHT22;12539;48.808;11.292;2023-03-01T05:35:47;1.50;99.90
24402;DHT22;12539;48.808;11.292;2023-03-01T05:38:14;1.40;99.90
24402;DHT22;12539;48.808;11.292;2023-03-01T05:40:43;1.40;99.90
24402;DHT22;12539;48.808;11.292;2023-03-01T05:43:09;1.50;99.90
24402;DHT22;12539;48.808;11.292;2023-03-01T05:45:36;1.40;99.90
24402;DHT22;12539;48.808;11.292;2023-03-01T05:48:02;1.40;99.90
24402;DHT22;12539;48.808;11.292;2023-03-01T05:50:29;1.40;99.90
24402;DHT22;12539;48.808;11.292;2023-03-01T05:53:02;1.40;99.90
24402;DHT22;12539;48.808;11.292;2023-03-01T05:55:29;1.30;99.90
24402;DHT22;12539;48.808;11.292;2023-03-01T05:57:57;1.40;99.90
24402;DHT22;12539;48.808;11.292;2023-03-01T06:00:23;1.30;99.90
24402;DHT22;12539;48.808;11.292;2023-03-01T06:02:49;1.30;99.90
24402;DHT22;12539;48.808;11.292;2023-03-01T06:05:14;1.30;99.90
24402;DHT22;12539;48.808;11.292;2023-03-01T06:07:40;1.30;99.90
24402;DHT22;12539;48.808;11.292;2023-03-01T06:10:06;1.30;99.90
24402;DHT22;12539;48.808;11.292;2023-03-01T06:12:33;1.30;99.90
24402;DHT22;12539;48.808;11.292;2023-03-01T06:14:59;1.30;99.90
24402;DHT22;12539;48.808;11.292;2023-03-01T06:17:25;1.40;99.90
24402;DHT22;12539;48.808;11.292;2023-03-01T06:19:50;1.50;99.90
24402;DHT22;12539;48.808;11.292;2023-03-01T06:22:16;1.50;99.90
24402;DHT22;12539;48.808;11.292;2023-03-01T06:24:42;1.60;99.90
24402;DHT22;12539;48.808;11.292;2023-03-01T06:27:07;1.60;99.90
24402;DHT22;12539;48.808;11.292;2023-03-01T06:29:33;1.70;99.90
24402;DHT22;12539;48.808;11.292;2023-03-01T06:31:58;1.80;99.90
24402;DHT22;12539;48.808;11.292;2023-03-01T06:34:24;1.80;99.90
24402;DHT22;12539;48.808;11.292;2023-03-01T06:36:50;1.80;99.90
24402;DHT22;12539;48.808;11.292;2023-03-01T06:39:15;1.80;99.90
24402;DHT22;12539;48.808;11.292;2023-03-01T06:41:43;1.80;99.90
24402;DHT22;12539;48.808;11.292;2023-03-01T06:44:09;1.80;99.90
24402;DHT22;12539;48.808;11.292;2023-03-01T06:46:34;1.70;99.90
24402;DHT22;12539;48.808;11.292;2023-03-01T06:49:00;1.70;99.90
24402;DHT22;12539;48.808;11.292;2023-03-01T06:51:25;1.70;99.90
24402;DHT22;12539;48.808;11.292;2023-03-01T06:53:51;1.70;99.90
24402;DHT22;12539;48.808;11.292;2023-03-01T06:56:16;1.80;99.90
24402;DHT22;12539;48.808;11.292;2023-03-01T06:58:42;1.90;99.90
24402;DHT22;12539;48.808;11.292;2023-03-01T07:01:08;1.90;99.90
24402;DHT22;12539;48.808;11.292;2023-03-01T07:03:33;1.90;99.90
24402;DHT22;12539;48.808;11.292;2023-03-01T07:05:59;1.90;99.90
24402;DHT22;12539;48.808;11.292;2023-03-01T07:08:25;1.90;99.90
24402;DHT22;12539;48.808;11.292;2023-03-01T07:10:59;1.90;99.90
24402;DHT22;12539;48.808;11.292;2023-03-01T07:13:27;2.00;99.90
24402;DHT22;12539;48.808;11.292;2023-03-01T07:15:52;2.00;99.90
24402;DHT22;12539;48.808;11.292;2023-03-01T07:18:18;2.10;99.90
24402;DHT22;12539;48.808;11.292;2023-03-01T07:20:43;2.10;99.90
24402;DHT22;12539;48.808;11.292;2023-03-01T07:23:09;2.20;99.90
24402;DHT22;12539;48.808;11.292;2023-03-01T07:25:35;2.20;99.90
24402;DHT22;12539;48.808;11.292;2023-03-01T07:28:00;2.20;99.90
24402;DHT22;12539;48.808;11.292;2023-03-01T07:30:26;2.30;99.90
24402;DHT22;12539;48.808;11.292;2023-03-01T07:32:53;2.40;99.90
24402;DHT22;12539;48.808;11.292;2023-03-01T07:35:19;2.50;99.90
24402;DHT22;12539;48.808;11.292;2023-03-01T07:37:45;2.60;99.90
24402;DHT22;12539;48.808;11.292;2023-03-01T07:40:10;2.60;99.90
24402;DHT22;12539;48.808;11.292;2023-03-01T07:42:36;2.70;99.90
24402;DHT22;12539;48.808;11.292;2023-03-01T07:45:02;2.80;99.90
24402;DHT22;12539;48.808;11.292;2023-03-01T07:47:28;2.80;99.90
24402;DHT22;12539;48.808;11.292;2023-03-01T07:49:53;2.90;99.90
24402;DHT22;12539;48.808;11.292;2023-03-01T07:52:19;2.90;99.90
24402;DHT22;12539;48.808;11.292;2023-03-01T07:54:44;3.00;99.90
24402;DHT22;12539;48.808;11.292;2023-03-01T07:57:10;3.00;99.90
24402;DHT22;12539;48.808;11.292;2023-03-01T07:59:37;3.10;99.90
24402;DHT22;12539;48.808;11.292;2023-03-01T08:02:02;3.20;99.90
24402;DHT22;12539;48.808;11.292;2023-03-01T08:04:28;3.20;99.90
24402;DHT22;12539;48.808;11.292;2023-03-01T08:06:56;3.30;99.90
24402;DHT22;12539;48.808;11.292;2023-03-01T08:09:24;3.30;99.90
24402;DHT22;12539;48.808;11.292;2023-03-01T08:11:50;3.30;99.90
24402;DHT22;12539;48.808;11.292;2023-03-01T08:14:15;3.40;99.90
24402;DHT22;12539;48.808;11.292;2023-03-01T08:16:41;3.50;99.90
24402;DHT22;12539;48.808;11.292;2023-03-01T08:19:07;3.50;99.90
24402;DHT22;12539;48.808;11.292;2023-03-01T08:21:33;3.60;99.90
24402;DHT22;12539;48.808;11.292;2023-03-01T08:24:02;3.60;99.90
24402;DHT22;12539;48.808;11.292;2023-03-01T08:26:28;3.70;99.90
24402;DHT22;12539;48.808;11.292;2023-03-01T08:28:53;3.80;99.90
24402;DHT22;12539;48.808;11.292;2023-03-01T08:31:23;3.80;99.90
24402;DHT22;12539;48.808;11.292;2023-03-01T08:33:50;3.90;99.90
24402;DHT22;12539;48.808;11.292;2023-03-01T08:36:20;4.00;99.90
24402;DHT22;12539;48.808;11.292;2023-03-01T08:38:46;4.10;99.90
24402;DHT22;12539;48.808;11.292;2023-03-01T08:41:11;4.10;99.90
24402;DHT22;12539;48.808;11.292;2023-03-01T08:43:37;4.10;99.90
24402;DHT22;12539;48.808;11.292;2023-03-01T08:46:02;4.10;99.90
24402;DHT22;12539;48.808;11.292;2023-03-01T08:48:28;4.10;99.90
24402;DHT22;12539;48.808;11.292;2023-03-01T08:50:54;4.20;99.90
24402;DHT22;12539;48.808;11.292;2023-03-01T08:53:19;4.20;99.90
24402;DHT22;12539;48.808;11.292;2023-03-01T08:55:45;4.30;99.90
24402;DHT22;12539;48.808;11.292;2023-03-01T08:58:11;4.30;99.90
24402;DHT22;12539;48.808;11.292;2023-03-01T09:00:37;4.30;99.90
24402;DHT22;12539;48.808;11.292;2023-03-01T09:03:02;4.40;99.10
24402;DHT22;12539;48.808;11.292;2023-03-01T09:05:28;4.40;99.70
24402;DHT22;12539;48.808;11.292;2023-03-01T09:07:53;4.50;98.60
24402;DHT22;12539;48.808;11.292;2023-03-01T09:10:19;4.60;98.60
24402;DHT22;12539;48.808;11.292;2023-03-01T09:12:44;4.70;99.70
24402;DHT22;12539;48.808;11.292;2023-03-01T09:15:10;4.80;99.90
24402;DHT22;12539;48.808;11.292;2023-03-01T09:17:35;4.90;98.70
24402;DHT22;12539;48.808;11.292;2023-03-01T09:20:01;4.90;96.90
24402;DHT22;12539;48.808;11.292;2023-03-01T09:22:26;5.00;96.80
24402;DHT22;12539;48.808;11.292;2023-03-01T09:24:52;5.10;97.80
24402;DHT22;12539;48.808;11.292;2023-03-01T09:27:17;5.20;96.40
24402;DHT22;12539;48.808;11.292;2023-03-01T09:29:44;5.20;94.80
24402;DHT22;12539;48.808;11.292;2023-03-01T09:32:10;5.30;92.80
24402;DHT22;12539;48.808;11.292;2023-03-01T09:34:35;5.30;93.10
24402;DHT22;12539;48.808;11.292;2023-03-01T09:37:24;5.40;92.20
24402;DHT22;12539;48.808;11.292;2023-03-01T09:39:49;5.40;91.30
24402;DHT22;12539;48.808;11.292;2023-03-01T09:42:15;5.40;90.80
24402;DHT22;12539;48.808;11.292;2023-03-01T09:47:16;5.50;89.00
24402;DHT22;12539;48.808;11.292;2023-03-01T09:49:42;5.50;86.20
24402;DHT22;12539;48.808;11.292;2023-03-01T09:54:55;5.60;85.20
24402;DHT22;12539;48.808;11.292;2023-03-01T09:57:38;5.50;83.10
24402;DHT22;12539;48.808;11.292;2023-03-01T10:02:52;5.50;85.40
24402;DHT22;12539;48.808;11.292;2023-03-01T10:05:30;5.50;85.90
24402;DHT22;12539;48.808;11.292;2023-03-01T10:12:56;5.60;85.60
24402;DHT22;12539;48.808;11.292;2023-03-01T10:15:34;5.70;85.50
24402;DHT22;12539;48.808;11.292;2023-03-01T10:18:06;5.70;84.00
24402;DHT22;12539;48.808;11.292;2023-03-01T10:23:12;5.70;83.30
24402;DHT22;12539;48.808;11.292;2023-03-01T10:28:17;5.70;82.10
24402;DHT22;12539;48.808;11.292;2023-03-01T10:30:43;5.60;83.10
24402;DHT22;12539;48.808;11.292;2023-03-01T10:33:42;5.70;83.30
24402;DHT22;12539;48.808;11.292;2023-03-01T10:36:01;5.70;83.20
24402;DHT22;12539;48.808;11.292;2023-03-01T10:38:27;5.70;81.90
24402;DHT22;12539;48.808;11.292;2023-03-01T10:40:56;5.70;83.30
24402;DHT22;12539;48.808;11.292;2023-03-01T10:43:23;5.80;85.20
24402;DHT22;12539;48.808;11.292;2023-03-01T10:45:49;5.80;81.90
24402;DHT22;12539;48.808;11.292;2023-03-01T10:48:22;5.80;84.00
24402;DHT22;12539;48.808;11.292;2023-03-01T10:51:17;5.90;85.90
24402;DHT22;12539;48.808;11.292;2023-03-01T10:53:38;6.00;84.80
24402;DHT22;12539;48.808;11.292;2023-03-01T10:56:09;6.00;86.40
24402;DHT22;12539;48.808;11.292;2023-03-01T10:58:36;6.10;85.80
24402;DHT22;12539;48.808;11.292;2023-03-01T11:03:39;6.20;84.80
24402;DHT22;12539;48.808;11.292;2023-03-01T11:06:16;6.30;84.40
24402;DHT22;12539;48.808;11.292;2023-03-01T11:08:46;6.30;82.70
24402;DHT22;12539;48.808;11.292;2023-03-01T11:13:59;6.40;84.10
24402;DHT22;12539;48.808;11.292;2023-03-01T11:16:24;6.40;83.40
24402;DHT22;12539;48.808;11.292;2023-03-01T11:19:03;6.50;82.20
24402;DHT22;12539;48.808;11.292;2023-03-01T11:21:30;6.50;82.30
24402;DHT22;12539;48.808;11.292;2023-03-01T11:23:58;6.50;80.80
24402;DHT22;12539;48.808;11.292;2023-03-01T11:26:25;6.50;82.80
24402;DHT22;12539;48.808;11.292;2023-03-01T11:28:51;6.50;82.60
24402;DHT22;12539;48.808;11.292;2023-03-01T11:31:18;6.50;82.20
24402;DHT22;12539;48.808;11.292;2023-03-01T11:33:46;6.60;83.70
24402;DHT22;12539;48.808;11.292;2023-03-01T11:38:45;6.60;82.40
24402;DHT22;12539;48.808;11.292;2023-03-01T11:41:15;6.60;83.50
24402;DHT22;12539;48.808;11.292;2023-03-01T11:51:05;6.70;83.40
24402;DHT22;12539;48.808;11.292;2023-03-01T11:53:39;6.70;83.90
24402;DHT22;12539;48.808;11.292;2023-03-01T11:56:16;6.80;81.50
24402;DHT22;12539;48.808;11.292;2023-03-01T12:11:52;6.90;82.80
24402;DHT22;12539;48.808;11.292;2023-03-01T12:14:55;7.00;81.10
24402;DHT22;12539;48.808;11.292;2023-03-01T12:17:56;7.00;82.90
24402;DHT22;12539;48.808;11.292;2023-03-01T12:22:47;7.10;83.30
24402;DHT22;12539;48.808;11.292;2023-03-01T12:33:12;7.20;81.80
24402;DHT22;12539;48.808;11.292;2023-03-01T12:51:17;7.40;81.90
24402;DHT22;12539;48.808;11.292;2023-03-01T12:53:47;7.40;82.40
24402;DHT22;12539;48.808;11.292;2023-03-01T12:56:19;7.40;83.50
24402;DHT22;12539;48.808;11.292;2023-03-01T13:01:22;7.60;83.80
24402;DHT22;12539;48.808;11.292;2023-03-01T13:11:32;7.60;82.90
24402;DHT22;12539;48.808;11.292;2023-03-01T13:14:45;7.70;81.40
24402;DHT22;12539;48.808;11.292;2023-03-01T13:16:45;7.60;81.00
24402;DHT22;12539;48.808;11.292;2023-03-01T13:19:27;7.70;82.40
24402;DHT22;12539;48.808;11.292;2023-03-01T13:21:57;7.70;80.90
24402;DHT22;12539;48.808;11.292;2023-03-01T13:24:37;7.70;81.70
24402;DHT22;12539;48.808;11.292;2023-03-01T13:32:21;7.90;81.90
24402;DHT22;12539;48.808;11.292;2023-03-01T13:34:47;7.90;81.20
24402;DHT22;12539;48.808;11.292;2023-03-01T13:37:23;7.90;81.50
24402;DHT22;12539;48.808;11.292;2023-03-01T13:39:51;8.00;83.90
24402;DHT22;12539;48.808;11.292;2023-03-01T13:42:36;8.00;82.30
24402;DHT22;12539;48.808;11.292;2023-03-01T13:45:04;8.00;83.50
24402;DHT22;12539;48.808;11.292;2023-03-01T13:47:30;8.10;81.40
24402;DHT22;12539;48.808;11.292;2023-03-01T13:52:39;8.10;81.60
24402;DHT22;12539;48.808;11.292;2023-03-01T13:55:06;8.10;80.00
24402;DHT22;12539;48.808;11.292;2023-03-01T13:57:37;8.10;81.30
24402;DHT22;12539;48.808;11.292;2023-03-01T14:00:04;8.10;81.60
24402;DHT22;12539;48.808;11.292;2023-03-01T14:02:30;8.20;82.60
24402;DHT22;12539;48.808;11.292;2023-03-01T14:04:57;8.20;81.90
24402;DHT22;12539;48.808;11.292;2023-03-01T14:07:23;8.20;80.90
24402;DHT22;12539;48.808;11.292;2023-03-01T14:09:55;8.20;80.90
24402;DHT22;12539;48.808;11.292;2023-03-01T14:15:01;8.20;81.70
24402;DHT22;12539;48.808;11.292;2023-03-01T14:17:34;8.20;81.90
24402;DHT22;12539;48.808;11.292;2023-03-01T14:20:09;8.20;81.10
24402;DHT22;12539;48.808;11.292;2023-03-01T14:22:36;8.30;79.80
24402;DHT22;12539;48.808;11.292;2023-03-01T14:25:06;8.30;81.10
24402;DHT22;12539;48.808;11.292;2023-03-01T14:27:38;8.30;79.60
24402;DHT22;12539;48.808;11.292;2023-03-01T14:32:37;8.30;79.00
24402;DHT22;12539;48.808;11.292;2023-03-01T14:35:03;8.30;78.30
24402;DHT22;12539;48.808;11.292;2023-03-01T14:37:30;8.30;78.90
24402;DHT22;12539;48.808;11.292;2023-03-01T14:39:57;8.20;78.30
24402;DHT22;12539;48.808;11.292;2023-03-01T14:42:23;8.20;78.90
24402;DHT22;12539;48.808;11.292;2023-03-01T14:44:51;8.20;79.40
24402;DHT22;12539;48.808;11.292;2023-03-01T14:47:32;8.20;78.40
24402;DHT22;12539;48.808;11.292;2023-03-01T14:50:08;8.20;79.70
24402;DHT22;12539;48.808;11.292;2023-03-01T14:52:34;8.20;79.80
24402;DHT22;12539;48.808;11.292;2023-03-01T14:55:02;8.30;77.20
24402;DHT22;12539;48.808;11.292;2023-03-01T14:57:28;8.20;78.40
24402;DHT22;12539;48.808;11.292;2023-03-01T14:59:54;8.20;80.40
24402;DHT22;12539;48.808;11.292;2023-03-01T15:02:24;8.30;79.20
24402;DHT22;12539;48.808;11.292;2023-03-01T15:04:57;8.30;80.20
24402;DHT22;12539;48.808;11.292;2023-03-01T15:07:26;8.30;81.00
24402;DHT22;12539;48.808;11.292;2023-03-01T15:09:53;8.20;81.30
24402;DHT22;12539;48.808;11.292;2023-03-01T15:14:57;8.30;82.90
24402;DHT22;12539;48.808;11.292;2023-03-01T15:17:26;8.30;84.30
24402;DHT22;12539;48.808;11.292;2023-03-01T15:19:55;8.30;83.40
24402;DHT22;12539;48.808;11.292;2023-03-01T15:22:20;8.30;81.40
24402;DHT22;12539;48.808;11.292;2023-03-01T15:24:49;8.30;81.90
24402;DHT22;12539;48.808;11.292;2023-03-01T15:27:18;8.30;81.40
24402;DHT22;12539;48.808;11.292;2023-03-01T15:29:48;8.30;82.00
24402;DHT22;12539;48.808;11.292;2023-03-01T15:32:31;8.30;83.40
24402;DHT22;12539;48.808;11.292;2023-03-01T15:34:57;8.30;84.00
24402;DHT22;12539;48.808;11.292;2023-03-01T15:37:39;8.30;83.30
24402;DHT22;12539;48.808;11.292;2023-03-01T15:40:19;8.30;83.20
24402;DHT22;12539;48.808;11.292;2023-03-01T15:42:45;8.30;85.60
24402;DHT22;12539;48.808;11.292;2023-03-01T15:47:38;8.20;85.40
24402;DHT22;12539;48.808;11.292;2023-03-01T15:50:04;8.20;84.20
24402;DHT22;12539;48.808;11.292;2023-03-01T15:52:34;8.10;84.10
24402;DHT22;12539;48.808;11.292;2023-03-01T15:55:03;8.10;85.40
24402;DHT22;12539;48.808;11.292;2023-03-01T15:57:29;8.00;83.80
24402;DHT22;12539;48.808;11.292;2023-03-01T15:59:54;7.90;81.50
24402;DHT22;12539;48.808;11.292;2023-03-01T16:02:21;7.90;83.00
24402;DHT22;12539;48.808;11.292;2023-03-01T16:04:47;7.80;84.60
24402;DHT22;12539;48.808;11.292;2023-03-01T16:07:14;7.80;84.70
24402;DHT22;12539;48.808;11.292;2023-03-01T16:09:40;7.70;87.70
24402;DHT22;12539;48.808;11.292;2023-03-01T16:12:09;7.70;88.00
24402;DHT22;12539;48.808;11.292;2023-03-01T16:14:38;7.70;87.30
24402;DHT22;12539;48.808;11.292;2023-03-01T16:17:03;7.60;87.00
24402;DHT22;12539;48.808;11.292;2023-03-01T16:19:29;7.60;89.40
24402;DHT22;12539;48.808;11.292;2023-03-01T16:21:54;7.50;87.80
24402;DHT22;12539;48.808;11.292;2023-03-01T16:24:20;7.50;87.90
24402;DHT22;12539;48.808;11.292;2023-03-01T16:26:45;7.40;88.70
24402;DHT22;12539;48.808;11.292;2023-03-01T16:29:11;7.30;89.40
24402;DHT22;12539;48.808;11.292;2023-03-01T16:31:36;7.30;90.70
24402;DHT22;12539;48.808;11.292;2023-03-01T16:34:02;7.20;90.50
24402;DHT22;12539;48.808;11.292;2023-03-01T16:36:28;7.20;90.40
24402;DHT22;12539;48.808;11.292;2023-03-01T16:38:54;7.10;90.40
24402;DHT22;12539;48.808;11.292;2023-03-01T16:41:21;7.10;90.70
24402;DHT22;12539;48.808;11.292;2023-03-01T16:43:47;7.10;91.60
24402;DHT22;12539;48.808;11.292;2023-03-01T16:49:15;7.00;91.90
24402;DHT22;12539;48.808;11.292;2023-03-01T16:51:41;7.00;91.70
24402;DHT22;12539;48.808;11.292;2023-03-01T16:54:06;6.90;92.40
24402;DHT22;12539;48.808;11.292;2023-03-01T16:56:32;6.90;92.00
24402;DHT22;12539;48.808;11.292;2023-03-01T16:58:59;6.80;92.00
24402;DHT22;12539;48.808;11.292;2023-03-01T17:01:25;6.70;92.60
24402;DHT22;12539;48.808;11.292;2023-03-01T17:03:51;6.70;92.70
24402;DHT22;12539;48.808;11.292;2023-03-01T17:06:18;6.60;92.40
24402;DHT22;12539;48.808;11.292;2023-03-01T17:08:45;6.60;92.70
24402;DHT22;12539;48.808;11.292;2023-03-01T17:11:15;6.50;92.00
24402;DHT22;12539;48.808;11.292;2023-03-01T17:13:41;6.50;92.40
24402;DHT22;12539;48.808;11.292;2023-03-01T17:16:09;6.40;93.00
24402;DHT22;12539;48.808;11.292;2023-03-01T17:18:34;6.40;93.40
24402;DHT22;12539;48.808;11.292;2023-03-01T17:21:00;6.30;93.70
24402;DHT22;12539;48.808;11.292;2023-03-01T17:23:26;6.30;94.40
24402;DHT22;12539;48.808;11.292;2023-03-01T17:25:52;6.40;95.00
24402;DHT22;12539;48.808;11.292;2023-03-01T17:28:23;6.30;93.70
24402;DHT22;12539;48.808;11.292;2023-03-01T17:30:49;6.30;94.70